createdAt,value
2018-05-21T00:00:14.065Z,14.80
2018-05-21T00:02:44.595Z,14.70
2018-05-21T00:05:12.050Z,14.70
2018-05-21T00:07:40.441Z,14.60
2018-05-21T00:10:07.940Z,14.60
2018-05-21T00:12:35.470Z,14.60
2018-05-21T00:15:02.912Z,14.50
2018-05-21T00:17:30.673Z,14.50
2018-05-21T00:20:01.817Z,14.40
2018-05-21T00:22:30.905Z,14.50
2018-05-21T00:24:58.367Z,14.50
2018-05-21T00:27:25.872Z,14.60
2018-05-21T00:29:53.353Z,14.50
2018-05-21T00:32:20.815Z,14.40
2018-05-21T00:34:59.567Z,14.40
2018-05-21T00:37:27.025Z,14.30
2018-05-21T00:39:59.176Z,14.10
2018-05-21T00:42:26.660Z,14.00
2018-05-21T00:44:54.159Z,14.10
2018-05-21T00:47:21.636Z,14.10
2018-05-21T00:49:49.112Z,14.00
2018-05-21T00:52:16.589Z,13.90
2018-05-21T00:54:46.704Z,13.80
2018-05-21T00:57:14.199Z,13.70
2018-05-21T00:59:41.663Z,13.70
2018-05-21T01:02:10.088Z,13.80
2018-05-21T01:04:37.543Z,13.60
2018-05-21T01:07:05.027Z,13.50
2018-05-21T01:09:32.507Z,13.30
2018-05-21T01:12:00.016Z,13.20
2018-05-21T01:14:27.472Z,13.10
2018-05-21T01:16:54.927Z,13.00
2018-05-21T01:19:25.300Z,12.90
2018-05-21T01:21:52.721Z,12.80
2018-05-21T01:24:20.377Z,12.70
2018-05-21T01:26:48.748Z,12.80
2018-05-21T01:29:16.209Z,12.90
2018-05-21T01:31:43.864Z,12.80
2018-05-21T01:34:11.327Z,12.70
2018-05-21T01:36:42.681Z,12.60
2018-05-21T01:39:10.934Z,12.40
2018-05-21T01:41:38.417Z,12.40
2018-05-21T01:44:05.893Z,12.30
2018-05-21T01:46:33.385Z,12.30
2018-05-21T01:49:00.873Z,12.20
2018-05-21T01:51:32.840Z,12.30
2018-05-21T01:54:00.289Z,12.20
2018-05-21T01:56:27.784Z,12.30
2018-05-21T01:58:56.028Z,12.60
2018-05-21T02:01:23.506Z,12.60
2018-05-21T02:03:50.976Z,12.60
2018-05-21T02:06:22.596Z,12.80
2018-05-21T02:08:50.665Z,12.80
2018-05-21T02:11:18.155Z,12.90
2018-05-21T02:13:45.648Z,12.80
2018-05-21T02:16:13.112Z,12.80
2018-05-21T02:18:40.589Z,12.80
2018-05-21T02:21:08.043Z,12.90
2018-05-21T02:23:36.808Z,13.00
2018-05-21T02:26:04.289Z,13.00
2018-05-21T02:28:31.768Z,13.00
2018-05-21T02:30:59.273Z,13.00
2018-05-21T02:33:26.737Z,13.00
2018-05-21T02:35:57.733Z,13.00
2018-05-21T02:38:26.370Z,13.10
2018-05-21T02:40:53.857Z,13.00
2018-05-21T02:43:21.529Z,13.10
2018-05-21T02:45:50.695Z,13.10
2018-05-21T02:48:18.173Z,13.10
2018-05-21T02:50:49.623Z,13.20
2018-05-21T02:53:17.085Z,13.20
2018-05-21T02:55:44.566Z,13.20
2018-05-21T02:58:12.803Z,13.30
2018-05-21T03:00:40.265Z,13.30
2018-05-21T03:03:07.732Z,13.30
2018-05-21T03:05:38.941Z,13.30
2018-05-21T03:08:06.403Z,13.30
2018-05-21T03:10:36.228Z,13.20
2018-05-21T03:13:03.710Z,13.20
2018-05-21T03:15:31.184Z,13.30
2018-05-21T03:17:59.456Z,13.30
2018-05-21T03:20:37.440Z,13.30
2018-05-21T03:23:04.946Z,13.20
2018-05-21T03:25:32.434Z,13.20
2018-05-21T03:28:00.732Z,13.20
2018-05-21T03:30:28.355Z,13.20
2018-05-21T03:32:55.853Z,13.20
2018-05-21T03:35:25.018Z,13.20
2018-05-21T03:37:52.477Z,13.20
2018-05-21T03:40:19.960Z,13.30
2018-05-21T03:42:47.413Z,13.30
2018-05-21T03:45:14.890Z,13.40
2018-05-21T03:47:42.348Z,13.50
2018-05-21T03:50:09.828Z,13.50
2018-05-21T03:52:37.307Z,13.40
2018-05-21T03:55:04.789Z,13.50
2018-05-21T03:57:32.257Z,13.50
2018-05-21T04:00:11.609Z,13.50
2018-05-21T04:02:51.563Z,13.60
2018-05-21T04:05:19.311Z,13.50
2018-05-21T04:07:46.760Z,13.50
2018-05-21T04:10:15.361Z,13.60
2018-05-21T04:12:42.837Z,13.70
2018-05-21T04:15:10.831Z,13.80
2018-05-21T04:17:38.318Z,13.80
2018-05-21T04:20:05.835Z,13.90
2018-05-21T04:22:34.066Z,15.60
2018-05-21T04:25:01.555Z,15.60
2018-05-21T04:27:29.289Z,16.80
2018-05-21T04:29:56.762Z,18.00
2018-05-21T04:32:25.432Z,19.70
2018-05-21T04:34:53.229Z,19.70
2018-05-21T04:37:28.135Z,20.30
2018-05-21T04:39:55.595Z,20.80
2018-05-21T04:42:23.110Z,21.40
2018-05-21T04:44:50.585Z,21.80
2018-05-21T04:47:18.053Z,22.40
2018-05-21T04:49:45.515Z,22.60
2018-05-21T04:52:16.243Z,22.80
2018-05-21T04:54:43.720Z,23.30
2018-05-21T04:57:12.726Z,24.00
2018-05-21T04:59:40.184Z,24.00
2018-05-21T05:02:07.728Z,24.60
2018-05-21T05:04:35.491Z,24.60
2018-05-21T05:07:02.958Z,24.40
2018-05-21T05:09:30.505Z,24.10
2018-05-21T05:11:59.140Z,24.00
2018-05-21T05:14:26.620Z,23.90
2018-05-21T05:16:54.081Z,23.90
2018-05-21T05:19:21.561Z,24.10
2018-05-21T05:21:49.013Z,24.40
2018-05-21T05:24:16.496Z,24.60
2018-05-21T05:26:44.833Z,25.00
2018-05-21T05:29:14.456Z,25.30
2018-05-21T05:31:42.708Z,25.30
2018-05-21T05:34:10.191Z,25.20
2018-05-21T05:36:37.652Z,25.10
2018-05-21T05:39:09.308Z,25.00
2018-05-21T05:41:37.715Z,24.70
2018-05-21T05:44:05.172Z,24.60
2018-05-21T05:46:32.650Z,24.80
2018-05-21T05:49:00.092Z,24.70
2018-05-21T05:51:27.708Z,24.50
2018-05-21T05:53:55.182Z,24.50
2018-05-21T05:56:22.709Z,24.40
2018-05-21T05:58:50.178Z,24.60
2018-05-21T06:01:17.681Z,25.00
2018-05-21T06:03:46.400Z,25.40
2018-05-21T06:06:13.895Z,25.40
2018-05-21T06:08:41.361Z,24.90
2018-05-21T06:11:13.225Z,24.60
2018-05-21T06:13:40.757Z,24.60
2018-05-21T06:16:08.223Z,24.10
2018-05-21T06:18:35.796Z,23.70
2018-05-21T06:21:04.078Z,22.80
2018-05-21T06:23:31.539Z,22.80
2018-05-21T06:26:03.314Z,22.50
2018-05-21T06:28:30.788Z,22.30
2018-05-21T06:30:58.287Z,21.70
2018-05-21T06:33:25.788Z,21.10
2018-05-21T06:35:53.291Z,20.20
2018-05-21T06:38:20.874Z,19.50
2018-05-21T06:40:53.612Z,19.10
2018-05-21T06:43:21.080Z,18.80
2018-05-21T06:45:49.523Z,18.50
2018-05-21T06:48:17.206Z,18.40
2018-05-21T06:50:44.693Z,18.30
2018-05-21T06:53:12.173Z,18.20
2018-05-21T06:55:43.928Z,18.20
2018-05-21T06:58:11.392Z,18.20
2018-05-21T07:00:38.975Z,18.20
2018-05-21T07:03:06.436Z,18.20
2018-05-21T07:05:33.940Z,18.20
2018-05-21T07:08:01.411Z,18.30
2018-05-21T07:10:28.868Z,18.30
2018-05-21T07:12:56.369Z,18.40
2018-05-21T07:15:23.877Z,18.50
2018-05-21T07:17:51.348Z,18.50
2018-05-21T07:20:18.804Z,18.50
2018-05-21T07:22:47.983Z,18.60
2018-05-21T07:25:15.463Z,18.70
2018-05-21T07:27:43.740Z,18.80
2018-05-21T07:30:11.193Z,18.80
2018-05-21T07:32:38.688Z,18.90
2018-05-21T07:35:06.523Z,19.00
2018-05-21T07:37:34.009Z,19.00
2018-05-21T07:40:05.118Z,19.00
2018-05-21T07:42:32.602Z,19.10
2018-05-21T07:45:00.109Z,19.20
2018-05-21T07:47:27.590Z,19.10
2018-05-21T07:49:55.175Z,19.10
2018-05-21T07:52:22.632Z,19.10
2018-05-21T07:54:50.502Z,19.20
2018-05-21T07:57:17.961Z,19.30
2018-05-21T07:59:45.450Z,19.50
2018-05-21T08:02:12.920Z,19.50
2018-05-21T08:04:40.430Z,19.60
2018-05-21T08:07:07.932Z,19.60
2018-05-21T08:09:35.444Z,19.70
2018-05-21T08:12:04.920Z,19.70
2018-05-21T08:14:33.184Z,19.80
2018-05-21T08:17:00.649Z,19.80
2018-05-21T08:19:28.840Z,19.80
2018-05-21T08:21:56.304Z,19.80
2018-05-21T08:24:24.569Z,20.00
2018-05-21T08:26:56.553Z,20.00
2018-05-21T08:29:23.992Z,20.10
2018-05-21T08:31:51.487Z,20.20
2018-05-21T08:34:18.951Z,20.20
2018-05-21T08:36:46.482Z,20.40
2018-05-21T08:39:14.708Z,20.60
2018-05-21T08:41:47.404Z,20.60
2018-05-21T08:44:14.901Z,20.70
2018-05-21T08:46:42.361Z,20.70
2018-05-21T08:49:09.820Z,20.70
2018-05-21T08:51:37.309Z,20.80
2018-05-21T08:54:05.013Z,20.90
2018-05-21T08:56:36.771Z,21.00
2018-05-21T08:59:04.124Z,21.00
2018-05-21T09:01:31.622Z,21.10
2018-05-21T09:03:59.085Z,21.20
2018-05-21T09:06:26.603Z,21.30
2018-05-21T09:08:54.105Z,21.30
2018-05-21T09:11:22.149Z,21.20
2018-05-21T09:13:49.645Z,21.10
2018-05-21T09:16:17.218Z,21.20
2018-05-21T09:18:44.649Z,21.30
2018-05-21T09:21:12.231Z,21.40
2018-05-21T09:23:39.719Z,21.50
2018-05-21T09:26:07.311Z,21.60
2018-05-21T09:28:34.696Z,21.70
2018-05-21T09:31:02.152Z,21.70
2018-05-21T09:33:30.056Z,21.80
2018-05-21T09:35:57.520Z,21.80
2018-05-21T09:38:25.793Z,22.00
2018-05-21T09:40:54.963Z,22.00
2018-05-21T09:43:22.425Z,22.00
2018-05-21T09:45:49.924Z,22.00
2018-05-21T09:48:17.387Z,22.10
2018-05-21T09:50:45.606Z,22.00
2018-05-21T09:53:13.130Z,22.00
2018-05-21T09:55:40.601Z,22.10
2018-05-21T09:58:08.640Z,22.20
2018-05-21T10:00:36.127Z,22.30
2018-05-21T10:03:03.580Z,22.50
2018-05-21T10:05:31.834Z,22.60
2018-05-21T10:07:59.312Z,22.70
2018-05-21T10:10:27.848Z,22.70
2018-05-21T10:12:55.677Z,22.70
2018-05-21T10:15:24.104Z,22.70
2018-05-21T10:17:52.275Z,22.70
2018-05-21T10:20:20.528Z,22.80
2018-05-21T10:22:49.094Z,22.80
2018-05-21T10:25:17.900Z,22.70
2018-05-21T10:27:45.364Z,22.70
2018-05-21T10:30:13.321Z,22.70
2018-05-21T10:32:40.820Z,22.80
2018-05-21T10:35:09.080Z,23.00
2018-05-21T10:37:38.433Z,23.00
2018-05-21T10:40:06.668Z,23.00
2018-05-21T10:42:34.170Z,23.00
2018-05-21T10:45:03.512Z,23.00
2018-05-21T10:47:32.563Z,23.10
2018-05-21T10:50:00.037Z,23.10
2018-05-21T10:52:28.467Z,23.10
2018-05-21T10:54:56.518Z,23.20
2018-05-21T10:57:24.061Z,23.30
2018-05-21T10:59:51.515Z,23.30
2018-05-21T11:02:19.980Z,23.20
2018-05-21T11:04:47.493Z,23.10
2018-05-21T11:07:15.714Z,23.10
2018-05-21T11:09:43.221Z,23.20
2018-05-21T11:12:11.491Z,23.10
2018-05-21T11:14:41.316Z,23.20
2018-05-21T11:17:09.524Z,23.20
2018-05-21T11:19:36.997Z,23.30
2018-05-21T11:22:05.028Z,23.50
2018-05-21T11:24:33.603Z,23.70
2018-05-21T11:27:01.432Z,23.90
2018-05-21T11:29:30.255Z,24.00
2018-05-21T11:31:57.852Z,24.00
2018-05-21T11:34:26.259Z,24.10
2018-05-21T11:36:54.480Z,24.20
2018-05-21T11:39:21.932Z,24.20
2018-05-21T11:41:49.436Z,24.40
2018-05-21T11:44:20.896Z,24.40
2018-05-21T11:46:48.383Z,24.40
2018-05-21T11:49:15.839Z,24.30
2018-05-21T11:51:44.703Z,24.40
2018-05-21T11:54:12.160Z,24.40
2018-05-21T11:56:39.648Z,24.60
2018-05-21T11:59:13.635Z,24.80
2018-05-21T12:01:41.103Z,24.80
2018-05-21T12:04:08.837Z,25.10
2018-05-21T12:06:37.131Z,25.20
2018-05-21T12:09:04.795Z,25.20
2018-05-21T12:11:32.256Z,25.10
2018-05-21T12:13:59.740Z,25.00
2018-05-21T12:16:27.615Z,24.90
2018-05-21T12:18:55.158Z,25.00
2018-05-21T12:21:23.411Z,24.80
2018-05-21T12:23:50.876Z,24.80
2018-05-21T12:26:18.324Z,24.60
2018-05-21T12:28:45.849Z,24.60
2018-05-21T12:31:17.458Z,24.40
2018-05-21T12:33:44.942Z,24.30
2018-05-21T12:36:12.440Z,24.40
2018-05-21T12:38:39.934Z,24.50
2018-05-21T12:41:08.242Z,24.50
2018-05-21T12:43:35.752Z,24.40
2018-05-21T12:46:04.021Z,24.50
2018-05-21T12:48:31.646Z,24.40
2018-05-21T12:50:59.211Z,24.70
2018-05-21T12:53:26.724Z,25.00
2018-05-21T12:55:55.903Z,25.40
2018-05-21T12:58:23.430Z,25.40
2018-05-21T13:00:50.935Z,25.40
2018-05-21T13:03:18.477Z,25.30
2018-05-21T13:05:45.953Z,25.20
2018-05-21T13:08:14.243Z,24.90
2018-05-21T13:10:41.693Z,24.90
2018-05-21T13:13:09.927Z,24.90
2018-05-21T13:15:37.441Z,25.00
2018-05-21T13:18:05.003Z,25.20
2018-05-21T13:20:32.504Z,25.40
2018-05-21T13:22:59.972Z,25.60
2018-05-21T13:25:27.482Z,25.70
2018-05-21T13:27:54.968Z,25.70
2018-05-21T13:30:23.412Z,25.90
2018-05-21T13:32:51.666Z,25.80
2018-05-21T13:35:19.177Z,25.80
2018-05-21T13:37:46.688Z,25.60
2018-05-21T13:40:14.988Z,25.60
2018-05-21T13:42:43.648Z,25.80
2018-05-21T13:45:11.160Z,25.70
2018-05-21T13:47:38.645Z,25.90
2018-05-21T13:50:06.137Z,25.80
2018-05-21T13:52:34.431Z,25.70
2018-05-21T13:55:01.890Z,25.70
2018-05-21T13:57:29.384Z,25.40
2018-05-21T13:59:56.865Z,25.30
2018-05-21T14:02:24.426Z,25.20
2018-05-21T14:04:51.950Z,25.20
2018-05-21T14:07:19.417Z,25.20
2018-05-21T14:09:46.924Z,25.20
2018-05-21T14:12:14.425Z,25.20
2018-05-21T14:14:41.956Z,25.20
2018-05-21T14:17:10.265Z,25.30
2018-05-21T14:19:37.750Z,25.30
2018-05-21T14:22:05.286Z,25.30
2018-05-21T14:24:32.740Z,25.40
2018-05-21T14:27:00.205Z,25.40
2018-05-21T14:29:27.746Z,25.40
2018-05-21T14:31:55.192Z,25.50
2018-05-21T14:34:24.392Z,25.70
2018-05-21T14:36:51.956Z,25.70
2018-05-21T14:39:19.519Z,25.80
2018-05-21T14:41:47.138Z,25.80
2018-05-21T14:44:15.429Z,25.70
2018-05-21T14:46:42.960Z,25.70
2018-05-21T14:49:10.464Z,25.70
2018-05-21T14:51:38.010Z,25.70
2018-05-21T14:54:05.668Z,25.80
2018-05-21T14:56:33.253Z,25.90
2018-05-21T14:59:00.790Z,26.00
2018-05-21T15:01:28.314Z,26.20
2018-05-21T15:03:56.816Z,26.50
2018-05-21T15:06:24.435Z,26.50
2018-05-21T15:08:51.928Z,26.40
2018-05-21T15:11:19.418Z,26.10
2018-05-21T15:13:47.002Z,25.90
2018-05-21T15:16:14.524Z,25.70
2018-05-21T15:18:42.159Z,25.60
2018-05-21T15:21:10.063Z,25.60
2018-05-21T15:23:37.586Z,25.60
2018-05-21T15:26:05.232Z,25.50
2018-05-21T15:28:33.539Z,25.20
2018-05-21T15:31:01.641Z,25.20
2018-05-21T15:33:33.565Z,25.20
2018-05-21T15:36:01.201Z,25.20
2018-05-21T15:38:29.224Z,25.20
2018-05-21T15:40:56.832Z,25.30
2018-05-21T15:43:24.486Z,25.40
2018-05-21T15:45:51.973Z,25.60
2018-05-21T15:48:22.795Z,25.90
2018-05-21T15:50:50.260Z,26.10
2018-05-21T15:53:17.769Z,26.20
2018-05-21T15:55:45.243Z,26.30
2018-05-21T15:58:13.178Z,26.40
2018-05-21T16:00:40.637Z,26.50
2018-05-21T16:03:11.900Z,26.40
2018-05-21T16:05:42.787Z,26.20
2018-05-21T16:08:10.250Z,26.20
2018-05-21T16:10:37.753Z,26.30
2018-05-21T16:13:05.212Z,26.50
2018-05-21T16:15:33.582Z,27.00
2018-05-21T16:18:01.048Z,28.10
2018-05-21T16:20:31.711Z,29.20
2018-05-21T16:22:59.225Z,30.30
2018-05-21T16:25:26.750Z,30.30
2018-05-21T16:27:54.241Z,29.10
2018-05-21T16:30:21.789Z,28.30
2018-05-21T16:32:49.330Z,27.40
2018-05-21T16:35:22.149Z,26.70
2018-05-21T16:37:49.652Z,26.20
2018-05-21T16:40:17.142Z,26.00
2018-05-21T16:42:44.608Z,25.90
2018-05-21T16:45:12.632Z,25.60
2018-05-21T16:47:40.096Z,25.60
2018-05-21T16:50:07.650Z,26.20
2018-05-21T16:52:35.149Z,27.00
2018-05-21T16:55:02.707Z,27.00
2018-05-21T16:57:30.196Z,27.20
2018-05-21T16:59:57.685Z,27.10
2018-05-21T17:02:25.170Z,26.70
2018-05-21T17:05:00.376Z,26.40
2018-05-21T17:07:27.893Z,26.30
2018-05-21T17:09:55.628Z,26.10
2018-05-21T17:12:23.259Z,25.60
2018-05-21T17:14:52.272Z,24.80
2018-05-21T17:17:19.803Z,24.80
2018-05-21T17:19:54.702Z,24.40
2018-05-21T17:22:22.644Z,24.10
2018-05-21T17:24:50.909Z,23.50
2018-05-21T17:27:19.127Z,23.20
2018-05-21T17:29:47.852Z,23.10
2018-05-21T17:32:15.310Z,23.10
2018-05-21T17:34:46.616Z,23.10
2018-05-21T17:37:14.157Z,23.10
2018-05-21T17:39:42.031Z,23.00
2018-05-21T17:42:09.518Z,23.00
2018-05-21T17:44:37.173Z,22.90
2018-05-21T17:47:04.728Z,22.90
2018-05-21T17:49:33.205Z,22.80
2018-05-21T17:52:02.943Z,22.50
2018-05-21T17:54:30.388Z,22.50
2018-05-21T17:56:57.913Z,22.40
2018-05-21T17:59:26.937Z,22.10
2018-05-21T18:01:56.525Z,22.10
2018-05-21T18:04:24.065Z,22.00
2018-05-21T18:06:55.888Z,21.90
2018-05-21T18:09:25.092Z,21.50
2018-05-21T18:11:52.648Z,21.50
2018-05-21T18:14:21.484Z,21.30
2018-05-21T18:16:49.868Z,21.00
2018-05-21T18:19:17.374Z,20.70
2018-05-21T18:21:44.981Z,20.50
2018-05-21T18:24:12.491Z,20.50
2018-05-21T18:26:40.550Z,20.70
2018-05-21T18:29:08.909Z,21.00
2018-05-21T18:31:38.002Z,21.20
2018-05-21T18:34:07.208Z,20.60
2018-05-21T18:36:36.960Z,20.60
2018-05-21T18:39:06.824Z,20.40
2018-05-21T18:41:35.924Z,20.00
2018-05-21T18:44:03.450Z,20.00
2018-05-21T18:46:30.936Z,19.90
2018-05-21T18:48:59.408Z,19.80
2018-05-21T18:51:30.248Z,19.60
2018-05-21T18:53:57.799Z,19.50
2018-05-21T18:56:26.951Z,19.30
2018-05-21T18:58:55.230Z,19.10
2018-05-21T19:01:23.563Z,19.10
2018-05-21T19:03:51.863Z,19.00
2018-05-21T19:06:22.352Z,19.00
2018-05-21T19:08:49.884Z,18.90
2018-05-21T19:11:17.466Z,18.80
2018-05-21T19:13:45.798Z,18.70
2018-05-21T19:16:13.341Z,18.50
2018-05-21T19:18:40.821Z,18.40
2018-05-21T19:21:08.346Z,18.30
2018-05-21T19:23:35.806Z,18.30
2018-05-21T19:26:03.905Z,18.10
2018-05-21T19:28:32.224Z,17.80
2018-05-21T19:30:59.692Z,17.80
2018-05-21T19:33:27.210Z,17.70
2018-05-21T19:35:54.740Z,17.60
2018-05-21T19:38:22.208Z,17.50
2018-05-21T19:40:51.720Z,17.40
2018-05-21T19:43:20.038Z,17.30
2018-05-21T19:45:47.570Z,17.20
2018-05-21T19:48:15.116Z,17.30
2018-05-21T19:50:43.202Z,17.10
2018-05-21T19:53:10.762Z,17.10
2018-05-21T19:55:38.566Z,17.10
2018-05-21T19:58:06.069Z,17.00
2018-05-21T20:00:34.358Z,16.90
2018-05-21T20:03:02.753Z,16.80
2018-05-21T20:05:31.419Z,16.90
2018-05-21T20:07:58.913Z,16.90
2018-05-21T20:10:28.029Z,16.90
2018-05-21T20:12:57.753Z,16.90
2018-05-21T20:15:26.122Z,16.70
2018-05-21T20:17:54.983Z,16.70
2018-05-21T20:20:35.328Z,16.60
2018-05-21T20:23:06.632Z,16.60
2018-05-21T20:25:35.084Z,16.50
2018-05-21T20:28:02.598Z,16.40
2018-05-21T20:30:30.869Z,16.30
2018-05-21T20:32:58.409Z,16.30
2018-05-21T20:35:25.889Z,16.30
2018-05-21T20:37:57.042Z,16.20
2018-05-21T20:40:25.292Z,16.10
2018-05-21T20:42:52.788Z,16.00
2018-05-21T20:45:20.294Z,16.10
2018-05-21T20:47:47.760Z,16.00
2018-05-21T20:50:15.231Z,15.90
2018-05-21T20:52:43.616Z,15.90
2018-05-21T20:55:11.940Z,15.80
2018-05-21T20:57:41.312Z,15.80
2018-05-21T21:00:08.867Z,15.80
2018-05-21T21:02:36.383Z,15.70
2018-05-21T21:05:04.769Z,15.70
2018-05-21T21:07:33.224Z,15.60
2018-05-21T21:10:01.473Z,15.60
2018-05-21T21:12:30.799Z,15.50
2018-05-21T21:14:58.334Z,15.50
2018-05-21T21:17:26.024Z,15.40
2018-05-21T21:19:53.525Z,15.40
2018-05-21T21:22:21.013Z,15.40
2018-05-21T21:24:48.476Z,15.30
2018-05-21T21:27:16.736Z,15.30
2018-05-21T21:29:44.227Z,15.30
2018-05-21T21:32:11.797Z,15.30
2018-05-21T21:34:39.342Z,15.20
2018-05-21T21:37:06.807Z,15.20
2018-05-21T21:39:37.872Z,15.10
2018-05-21T21:42:06.175Z,15.00
2018-05-21T21:44:33.739Z,14.90
2018-05-21T21:47:01.169Z,14.90
2018-05-21T21:49:28.644Z,14.90
2018-05-21T21:51:56.140Z,14.90
2018-05-21T21:54:23.869Z,14.80
2018-05-21T21:56:51.615Z,14.80
2018-05-21T21:59:20.104Z,14.70
2018-05-21T22:01:47.633Z,14.70
2018-05-21T22:04:15.104Z,14.80
2018-05-21T22:06:42.585Z,14.70
2018-05-21T22:09:14.648Z,14.70
2018-05-21T22:11:42.109Z,14.60
2018-05-21T22:14:10.385Z,14.60
2018-05-21T22:16:37.838Z,14.60
2018-05-21T22:19:05.296Z,14.50
2018-05-21T22:21:32.752Z,14.50
2018-05-21T22:24:00.203Z,14.50
2018-05-21T22:26:32.776Z,14.40
2018-05-21T22:29:01.022Z,14.40
2018-05-21T22:31:28.976Z,14.40
2018-05-21T22:33:56.439Z,14.40
2018-05-21T22:36:23.949Z,14.40
2018-05-21T22:38:52.193Z,14.30
2018-05-21T22:41:19.656Z,14.30
2018-05-21T22:43:47.143Z,14.30
2018-05-21T22:46:14.618Z,14.20
2018-05-21T22:48:42.939Z,14.20
2018-05-21T22:51:10.409Z,14.20
2018-05-21T22:53:37.884Z,14.10
2018-05-21T22:56:06.108Z,14.00
2018-05-21T22:58:33.612Z,14.00
2018-05-21T23:01:01.985Z,14.00
2018-05-21T23:03:29.458Z,14.00
2018-05-21T23:05:56.908Z,14.00
2018-05-21T23:08:24.572Z,14.00
2018-05-21T23:10:52.034Z,14.00
2018-05-21T23:13:19.485Z,13.90
2018-05-21T23:15:46.991Z,13.90
2018-05-21T23:18:14.438Z,13.90
2018-05-21T23:20:41.963Z,13.90
2018-05-21T23:23:10.337Z,13.80
2018-05-21T23:25:37.987Z,13.80
2018-05-21T23:28:05.501Z,13.80
2018-05-21T23:30:33.012Z,13.80
2018-05-21T23:33:00.473Z,13.70
2018-05-21T23:35:27.924Z,13.70
2018-05-21T23:37:55.413Z,13.60
2018-05-21T23:40:24.579Z,13.60
2018-05-21T23:42:52.066Z,13.60
2018-05-21T23:45:20.346Z,13.50
2018-05-21T23:47:49.516Z,13.50
2018-05-21T23:50:16.972Z,13.40
2018-05-21T23:52:44.482Z,13.40
2018-05-21T23:55:11.962Z,13.40
2018-05-21T23:57:39.427Z,13.40
